メインページ
METAR-TAF:

METAR-TAF

空港 :

レゾリュート, ヌナブト準州, カナダ

緯度: 74-43N, 経度: 094-59W, 海抜: 67m

現時点の気象観測

当レポートは20分前の23:00(UTC)に作成
無風
気温 1°C
湿度 64%
気圧 1022 hPa
視程: 24.1km
晴天

METAR: CYRB 272300Z 00000KT 15SM SKC 01/M05 A3018 RMK SLP228

時間: 18:20 (23:20 UTC)

予報

当レポートは5時間39分前の17:41(UTC)に作成
予報は27日の 18時(UTC)から 28日の 18時(UTC)まで有効
変向風 3kt
視程: 10km
晴天
27日の 18時(UTC)から 27日の 20時(UTC)まで徐々に
北/北東の風 8kt

TAF: CYRB 271741Z 2718/2818 VRB03KT P6SM SKC BECMG 2718/2720 02008KT RMK NXT FCST BY 280000Z

4,000以上の空港の気象観測と天気予報(METAR報とTAF報)

利用可能な観測所は地図上に黄色い丸と赤い丸で示す。

丸の上にカーソルを重ねると観測所名を参照できる。

次にクリックすると気象観測と天気予報を参照できる。

マップの切り替え:黒色「×」印の緑ボタンをクリックして拡大、「-」印の緑ボタンをクリックして縮小、緑色の三角印をクリックして隣りの地図に切り替え


METAR-TAF: